Time;durP1;ratioP1;P1;durP2;ratioP2;P2;SDS_P1;SDS_P2;PMS_P1;PMS_P2;Temp;Humidity;BMP_temperature;BMP_pressure;BME280_temperature;BME280_humidity;BME280_pressure;Samples;Min_cycle;Max_cycle;Signal;HPM_P1;HPM_P2
2021/05/30 00:00:45;;;;;;;;;14.33;13.33;;;;;22.55;41.66;101906.44;5040780;28;46192;-54
2021/05/30 00:03:11;;;;;;;;;13.00;12.00;;;;;22.54;41.68;101910.84;5035253;28;45251;-54
2021/05/30 00:05:36;;;;;;;;;16.00;12.33;;;;;22.53;41.66;101907.34;5040274;28;60994;-53
2021/05/30 00:08:01;;;;;;;;;15.33;13.33;;;;;22.52;41.68;101912.69;5042055;28;56830;-54
2021/05/30 00:10:27;;;;;;;;;12.33;12.33;;;;;22.52;41.56;101902.13;5041807;28;59861;-55
2021/05/30 00:12:54;;;;;;;;;14.00;12.00;;;;;22.51;41.96;101911.81;5042535;28;45283;-53
2021/05/30 00:15:19;;;;;;;;;12.00;11.67;;;;;22.51;42.02;101909.16;5042502;28;45302;-53
2021/05/30 00:17:46;;;;;;;;;16.67;13.33;;;;;22.51;41.76;101903.03;5042779;28;45576;-58
2021/05/30 00:20:12;;;;;;;;;13.33;13.33;;;;;22.51;42.10;101911.81;5041994;28;45416;-50
2021/05/30 00:22:38;;;;;;;;;14.67;13.67;;;;;22.51;41.89;101906.53;5042150;28;45241;-50
2021/05/30 00:25:06;;;;;;;;;11.00;10.33;;;;;22.51;41.62;101903.03;5023603;28;45405;-54
2021/05/30 00:27:32;;;;;;;;;10.00;10.00;;;;;22.51;41.38;101903.03;5022590;28;45307;-52
2021/05/30 00:29:58;;;;;;;;;13.33;13.33;;;;;22.50;41.53;101907.44;5022039;28;46913;-54
2021/05/30 00:32:23;;;;;;;;;11.00;11.00;;;;;22.49;41.77;101913.66;5022298;28;45343;-52
2021/05/30 00:34:48;;;;;;;;;14.00;11.67;;;;;22.49;41.66;101908.34;5020298;28;55537;-50
2021/05/30 00:37:14;;;;;;;;;10.33;9.67;;;;;22.49;41.43;101910.16;5049626;28;46288;-51
2021/05/30 00:39:39;;;;;;;;;14.67;13.00;;;;;22.48;41.42;101909.28;5041282;28;66984;-53
2021/05/30 00:42:05;;;;;;;;;10.67;10.00;;;;;22.47;41.39;101912.81;5042475;28;45303;-52
2021/05/30 00:44:30;;;;;;;;;12.00;12.00;;;;;22.48;41.42;101911.06;5042071;28;45421;-51
2021/05/30 00:46:57;;;;;;;;;10.67;10.67;;;;;22.46;41.58;101913.75;5033908;28;45417;-50
2021/05/30 00:49:24;;;;;;;;;11.33;11.33;;;;;22.46;41.46;101911.09;5034096;28;45474;-52
2021/05/30 00:51:50;;;;;;;;;13.33;11.33;;;;;22.46;41.59;101911.09;5022131;28;45186;-50
2021/05/30 00:54:17;;;;;;;;;10.00;10.00;;;;;22.45;41.32;101912.03;5021968;28;45173;-52
2021/05/30 00:56:42;;;;;;;;;12.67;12.00;;;;;22.45;41.47;101901.47;5021045;28;45462;-52
2021/05/30 00:59:14;;;;;;;;;12.33;10.33;;;;;22.45;41.42;101903.22;5020364;28;45363;-51
2021/05/30 01:01:41;;;;;;;;;16.67;11.67;;;;;22.43;41.59;101905.94;5025688;28;45350;-51
2021/05/30 01:04:07;;;;;;;;;11.00;11.00;;;;;22.43;41.61;101905.94;5028415;28;45243;-50
2021/05/30 01:06:33;;;;;;;;;12.33;11.00;;;;;22.43;41.63;101899.75;5040325;28;45539;-48
2021/05/30 01:09:01;;;;;;;;;14.00;13.00;;;;;22.42;41.79;101901.56;5041573;28;47193;-50
2021/05/30 01:11:26;;;;;;;;;12.00;11.33;;;;;22.39;41.50;101897.19;5041550;28;45279;-53
2021/05/30 01:13:54;;;;;;;;;12.33;12.33;;;;;22.41;41.45;101893.63;5041694;28;45376;-53
2021/05/30 01:16:21;;;;;;;;;13.00;10.33;;;;;22.40;41.12;101892.78;5042031;28;45215;-51
2021/05/30 01:18:48;;;;;;;;;11.00;11.00;;;;;22.38;41.65;101895.47;5033163;28;47016;-53
2021/05/30 01:21:14;;;;;;;;;10.00;10.00;;;;;22.38;41.28;101895.47;5024032;28;45348;-50
2021/05/30 01:23:40;;;;;;;;;12.33;11.33;;;;;22.37;41.69;101887.56;5031814;28;45357;-54
2021/05/30 01:26:05;;;;;;;;;11.00;10.33;;;;;22.38;41.91;101897.25;5019482;28;45497;-50
2021/05/30 01:28:31;;;;;;;;;12.67;11.67;;;;;22.36;41.79;101894.66;5019239;28;45432;-53
2021/05/30 01:30:56;;;;;;;;;11.33;11.33;;;;;22.36;41.32;101891.13;5018991;28;49877;-52
2021/05/30 01:33:22;;;;;;;;;12.33;12.33;;;;;22.35;41.63;101894.69;5019337;28;45448;-52
2021/05/30 01:35:47;;;;;;;;;10.67;10.67;;;;;22.34;41.48;101891.19;5048647;28;45583;-52
2021/05/30 01:38:13;;;;;;;;;16.67;14.67;;;;;22.33;41.27;101881.53;5038400;28;46494;-52
2021/05/30 01:40:40;;;;;;;;;10.33;10.33;;;;;22.34;41.05;101887.69;5041245;28;45319;-53
2021/05/30 01:43:05;;;;;;;;;11.33;11.33;;;;;22.33;41.88;101883.31;5041606;28;45145;-51
2021/05/30 01:45:32;;;;;;;;;9.00;8.67;;;;;22.32;41.58;101881.56;5040868;28;49924;-50
2021/05/30 01:47:58;;;;;;;;;9.33;9.00;;;;;22.32;41.10;101885.09;5023963;28;45266;-52
2021/05/30 01:50:26;;;;;;;;;11.33;11.00;;;;;22.31;41.16;101878.06;5019481;28;45423;-53
2021/05/30 01:52:52;;;;;;;;;11.00;11.00;;;;;22.31;41.44;101883.38;5021468;28;45460;-53
2021/05/30 01:57:51;;;;;;;;;14.33;12.33;;;;;22.31;41.58;101882.50;5020908;28;45280;-49
2021/05/30 02:00:18;;;;;;;;;10.33;10.33;;;;;22.30;41.06;101880.78;5022497;28;45363;-48
2021/05/30 02:02:50;;;;;;;;;10.00;9.33;;;;;22.29;41.23;101881.69;5024642;28;45176;-49
2021/05/30 02:05:15;;;;;;;;;11.67;11.67;;;;;22.28;41.68;101875.53;5023411;28;45357;-48
2021/05/30 02:07:41;;;;;;;;;12.00;11.33;;;;;22.27;41.66;101889.66;5039652;28;48616;-50
2021/05/30 02:10:07;;;;;;;;;11.33;11.33;;;;;22.28;41.37;101887.91;5024312;28;45362;-52
2021/05/30 02:12:34;;;;;;;;;10.33;10.33;;;;;22.27;41.58;101891.47;5024866;28;45355;-51
2021/05/30 02:15:00;;;;;;;;;10.67;10.67;;;;;22.27;41.25;101889.66;5038924;28;45216;-51
2021/05/30 02:17:25;;;;;;;;;10.00;10.00;;;;;22.27;41.67;101891.47;5044366;28;45265;-49
2021/05/30 02:19:52;;;;;;;;;11.00;11.00;;;;;22.24;41.41;101884.47;5042776;28;45277;-49
2021/05/30 02:22:18;;;;;;;;;12.67;12.00;;;;;22.25;41.46;101893.28;5044374;28;45467;-52
2021/05/30 02:24:44;;;;;;;;;9.67;9.67;;;;;22.25;41.57;101888.00;5028241;28;45314;-50
2021/05/30 02:27:09;;;;;;;;;13.00;11.00;;;;;22.24;41.48;101895.03;5023018;28;46831;-52
2021/05/30 02:29:37;;;;;;;;;10.00;10.00;;;;;22.24;41.77;101889.75;5055207;28;56111;-52
2021/05/30 02:32:05;;;;;;;;;12.00;11.00;;;;;22.24;41.60;101892.41;5044328;28;45263;-51
2021/05/30 02:34:31;;;;;;;;;11.00;11.00;;;;;22.23;41.43;101893.34;5043962;28;45238;-51
2021/05/30 02:36:56;;;;;;;;;10.00;10.00;;;;;22.21;41.47;101888.09;5044114;28;46419;-50
2021/05/30 02:39:22;;;;;;;;;13.67;12.00;;;;;22.22;41.42;101891.59;5042091;28;58831;-52
2021/05/30 02:41:47;;;;;;;;;12.00;10.33;;;;;22.20;41.67;101891.63;5035390;28;45650;-49
2021/05/30 02:44:12;;;;;;;;;12.33;12.33;;;;;22.20;41.60;101886.34;5042730;28;48565;-49
2021/05/30 02:46:38;;;;;;;;;10.33;9.67;;;;;22.20;41.66;101893.44;5035519;28;45772;-51
2021/05/30 02:49:03;;;;;;;;;11.00;10.00;;;;;22.20;41.81;101891.63;5030978;28;45531;-49
2021/05/30 02:51:29;;;;;;;;;11.00;11.00;;;;;22.19;41.44;101886.41;5040668;28;62827;-48
2021/05/30 02:53:54;;;;;;;;;12.00;10.67;;;;;22.19;41.30;101892.56;5040487;28;45442;-49
2021/05/30 02:56:19;;;;;;;;;15.33;11.00;;;;;22.19;41.89;101891.72;5041214;28;45480;-51
2021/05/30 02:58:45;;;;;;;;;11.67;11.67;;;;;22.19;41.65;101889.91;5041036;28;59366;-52
2021/05/30 03:01:10;;;;;;;;;11.00;10.67;;;;;22.19;41.77;101891.72;5029820;28;45763;-49
2021/05/30 03:03:36;;;;;;;;;9.67;9.67;;;;;22.18;41.58;101890.81;5023670;28;47414;-51
2021/05/30 03:06:01;;;;;;;;;10.00;10.00;;;;;22.17;41.54;101891.72;5023250;28;45271;-54
2021/05/30 03:08:27;;;;;;;;;11.67;11.00;;;;;22.17;41.78;101890.88;5023150;28;59389;-52
2021/05/30 03:10:52;;;;;;;;;9.00;8.00;;;;;22.17;41.80;101891.72;5023048;28;45275;-53
2021/05/30 03:13:17;;;;;;;;;12.33;11.00;;;;;22.16;41.46;101897.09;5023190;28;49335;-53
2021/05/30 03:15:43;;;;;;;;;11.00;11.00;;;;;22.15;41.67;101896.22;5022744;28;59581;-53
2021/05/30 03:18:08;;;;;;;;;11.00;11.00;;;;;22.15;42.09;101898.88;5023490;28;46008;-52
2021/05/30 03:20:34;;;;;;;;;12.67;11.00;;;;;22.15;41.60;101898.88;5023258;28;45358;-49
2021/05/30 03:22:59;;;;;;;;;11.67;11.00;;;;;22.14;41.75;101902.44;5029983;28;45234;-51
2021/05/30 03:25:24;;;;;;;;;13.00;11.00;;;;;22.14;41.67;101902.44;5028427;28;45959;-51
2021/05/30 03:27:50;;;;;;;;;12.00;11.67;;;;;22.13;41.51;101908.63;5022688;28;55265;-51
2021/05/30 03:30:15;;;;;;;;;11.00;11.00;;;;;22.14;41.58;101904.19;5023476;28;45239;-51
2021/05/30 03:32:41;;;;;;;;;11.00;9.00;;;;;22.14;41.67;101909.47;5023661;28;45415;-53
2021/05/30 03:35:07;;;;;;;;;11.00;11.00;;;;;22.13;41.79;101903.34;5021093;28;62904;-53
2021/05/30 03:37:32;;;;;;;;;11.33;11.00;;;;;22.12;41.94;101908.66;5023480;28;45325;-52
2021/05/30 03:40:01;;;;;;;;;12.00;12.00;;;;;22.11;41.69;101907.81;5023272;28;45396;-47
2021/05/30 03:42:29;;;;;;;;;10.00;10.00;;;;;22.11;41.63;101910.47;5036480;28;45372;-52
2021/05/30 03:44:58;;;;;;;;;12.00;10.00;;;;;22.11;41.31;101910.47;5042994;28;46343;-50
2021/05/30 03:47:24;;;;;;;;;11.00;10.00;;;;;22.11;41.83;101913.09;5030473;28;45340;-49
2021/05/30 03:49:50;;;;;;;;;12.33;12.33;;;;;22.10;41.62;101908.72;5045684;28;45334;-52
2021/05/30 03:52:16;;;;;;;;;13.33;12.00;;;;;22.10;41.75;101913.13;5042097;28;45566;-53
2021/05/30 03:54:41;;;;;;;;;11.00;11.00;;;;;22.10;41.64;101907.84;5042987;28;45358;-51
2021/05/30 03:57:07;;;;;;;;;11.33;10.00;;;;;22.10;41.90;101911.38;5042955;28;45310;-53
2021/05/30 03:59:32;;;;;;;;;11.33;10.00;;;;;22.09;41.69;101909.63;5042958;28;45431;-49
2021/05/30 04:01:57;;;;;;;;;9.33;9.33;;;;;22.08;41.43;101908.75;5041854;28;45512;-53
2021/05/30 04:04:23;;;;;;;;;11.00;11.00;;;;;22.08;41.91;101914.03;5040518;28;67326;-51
2021/05/30 04:06:48;;;;;;;;;13.33;13.33;;;;;22.08;42.00;101907.91;5042782;28;45287;-51
2021/05/30 04:09:13;;;;;;;;;13.00;11.67;;;;;22.07;41.80;101907.06;5042678;28;45231;-52
2021/05/30 04:11:39;;;;;;;;;9.33;8.67;;;;;22.07;41.61;101907.06;5042338;28;54172;-52
2021/05/30 04:14:04;;;;;;;;;11.00;10.00;;;;;22.07;41.78;101911.47;5041868;28;68631;-51
2021/05/30 04:16:29;;;;;;;;;8.67;8.67;;;;;22.06;41.83;101909.72;5042683;28;45245;-51
2021/05/30 04:18:55;;;;;;;;;12.00;12.00;;;;;22.06;41.66;101909.72;5021249;28;53440;-51
2021/05/30 04:21:20;;;;;;;;;11.00;10.33;;;;;22.07;42.09;101912.34;5022034;28;54455;-50
2021/05/30 04:23:46;;;;;;;;;9.67;9.67;;;;;22.05;41.98;101915.94;5028214;28;60450;-52
2021/05/30 04:26:11;;;;;;;;;12.00;12.00;;;;;22.05;41.68;101913.28;5022516;28;45323;-50
2021/05/30 04:28:37;;;;;;;;;10.00;10.00;;;;;22.05;41.99;101914.16;5022424;28;45241;-52
2021/05/30 04:31:02;;;;;;;;;13.67;12.00;;;;;22.05;41.70;101914.16;5047378;28;45264;-53
2021/05/30 04:33:27;;;;;;;;;11.00;10.00;;;;;22.04;41.96;101909.78;5022174;28;52153;-53
2021/05/30 04:35:53;;;;;;;;;15.33;14.33;;;;;22.04;41.88;101909.78;5022072;28;45399;-52
2021/05/30 04:38:18;;;;;;;;;12.00;11.67;;;;;22.04;41.73;101903.63;5021217;28;45385;-50
2021/05/30 04:40:45;;;;;;;;;8.33;8.33;;;;;22.05;41.72;101910.63;5022534;28;45507;-51
2021/05/30 04:43:10;;;;;;;;;11.33;10.33;;;;;22.04;41.82;101908.91;5040983;28;45323;-54
2021/05/30 04:45:35;;;;;;;;;13.00;12.67;;;;;22.04;41.77;101914.19;5029736;28;45468;-54
2021/05/30 04:48:01;;;;;;;;;15.33;12.33;;;;;22.03;42.03;101913.34;5022140;28;45287;-55
2021/05/30 04:50:26;;;;;;;;;11.00;11.00;;;;;22.03;41.88;101915.97;5022264;28;45478;-55
2021/05/30 04:52:52;;;;;;;;;10.00;10.00;;;;;22.03;41.88;101918.63;5004077;28;45534;-53
2021/05/30 04:55:18;;;;;;;;;10.67;10.00;;;;;22.03;42.28;101921.28;5021755;28;56114;-53
2021/05/30 04:57:45;;;;;;;;;11.00;11.00;;;;;22.03;41.85;101915.09;5039108;28;45375;-49
2021/05/30 05:00:13;;;;;;;;;11.33;9.33;;;;;22.03;42.31;101915.97;5031577;28;45331;-53
2021/05/30 05:02:38;;;;;;;;;12.00;12.00;;;;;22.03;41.86;101910.69;5027493;28;46225;-52
2021/05/30 05:05:05;;;;;;;;;10.00;10.00;;;;;22.04;42.13;101914.19;5040998;28;46403;-53
2021/05/30 05:07:30;;;;;;;;;14.00;12.67;;;;;22.03;41.88;101918.63;5041373;28;45400;-53
2021/05/30 05:09:56;;;;;;;;;10.33;10.33;;;;;22.04;42.23;101925.66;5040953;28;53699;-53
2021/05/30 05:12:21;;;;;;;;;10.67;10.67;;;;;22.05;41.75;101921.22;5040278;28;69467;-52
2021/05/30 05:14:46;;;;;;;;;13.67;11.67;;;;;22.04;42.04;101920.38;5041101;28;45377;-51
2021/05/30 05:17:12;;;;;;;;;12.33;11.00;;;;;22.04;42.07;101917.72;5031251;28;50079;-51
2021/05/30 05:19:37;;;;;;;;;8.33;8.33;;;;;22.04;42.10;101915.06;5021837;28;45390;-51
2021/05/30 05:22:02;;;;;;;;;14.00;13.00;;;;;22.04;41.97;101914.19;5020975;28;61228;-53
2021/05/30 05:24:28;;;;;;;;;14.00;11.67;;;;;22.04;42.00;101916.84;5043250;28;45402;-51
2021/05/30 05:26:53;;;;;;;;;11.67;11.67;;;;;22.03;41.84;101915.97;5021786;28;51321;-53
2021/05/30 05:29:18;;;;;;;;;12.33;11.33;;;;;22.04;41.82;101917.72;5041444;28;45796;-54
2021/05/30 05:31:44;;;;;;;;;8.67;8.67;;;;;22.04;41.72;101917.72;5040448;28;64534;-54
2021/05/30 05:34:09;;;;;;;;;13.00;11.33;;;;;22.04;42.00;101916.84;5040631;28;63757;-52
2021/05/30 05:36:34;;;;;;;;;11.00;10.67;;;;;22.04;42.41;101916.84;5045055;28;45399;-53
2021/05/30 05:39:00;;;;;;;;;13.33;11.33;;;;;22.04;42.31;101916.84;5043499;28;53095;-52
2021/05/30 05:41:25;;;;;;;;;14.33;14.33;;;;;22.04;41.68;101916.84;5032779;28;47108;-53
2021/05/30 05:43:51;;;;;;;;;12.67;11.67;;;;;22.04;41.85;101912.44;5027941;28;45367;-51
2021/05/30 05:46:16;;;;;;;;;12.00;11.33;;;;;22.05;41.89;101916.81;5022150;28;55589;-53
2021/05/30 05:48:41;;;;;;;;;10.33;10.33;;;;;22.05;41.94;101921.22;5020737;28;60075;-51
2021/05/30 05:51:07;;;;;;;;;13.00;12.00;;;;;22.05;42.11;101915.94;5022405;28;46254;-52
2021/05/30 05:53:32;;;;;;;;;9.67;9.67;;;;;22.05;42.08;101916.81;5022571;28;45476;-51
2021/05/30 05:55:57;;;;;;;;;11.67;11.33;;;;;22.05;42.12;101919.44;5022366;28;48609;-53
2021/05/30 05:58:23;;;;;;;;;10.33;10.33;;;;;22.06;41.75;101925.59;5021819;28;55271;-52
2021/05/30 06:00:48;;;;;;;;;13.00;10.00;;;;;22.05;42.11;101922.09;5028717;28;46296;-53
2021/05/30 06:03:14;;;;;;;;;14.00;14.00;;;;;22.05;42.21;101914.16;5039195;28;63311;-53
2021/05/30 06:05:39;;;;;;;;;13.33;12.00;;;;;22.06;41.79;101915.00;5044028;28;56525;-53
2021/05/30 06:08:05;;;;;;;;;10.67;10.67;;;;;22.05;41.41;101921.22;5044766;28;45567;-53
2021/05/30 06:10:31;;;;;;;;;12.33;10.33;;;;;22.05;42.04;101910.63;5044532;28;45939;-54
2021/05/30 06:12:59;;;;;;;;;12.67;12.67;;;;;22.05;41.89;101915.94;5043054;28;45442;-51
2021/05/30 06:15:24;;;;;;;;;9.67;9.67;;;;;22.05;42.08;101922.09;5044635;28;45314;-52
2021/05/30 06:17:55;;;;;;;;;14.00;12.67;;;;;22.05;41.98;101919.44;5044429;28;45366;-50
2021/05/30 06:20:20;;;;;;;;;11.33;11.33;;;;;22.06;41.61;101925.59;5044124;28;46145;-50
2021/05/30 06:22:46;;;;;;;;;10.67;10.67;;;;;22.06;42.15;101923.81;5041705;28;45273;-50
2021/05/30 06:25:12;;;;;;;;;14.00;12.00;;;;;22.06;42.12;101929.09;5032168;28;45342;-49
2021/05/30 06:27:37;;;;;;;;;15.00;13.67;;;;;22.06;42.11;101929.09;5028682;28;45382;-50
2021/05/30 06:30:04;;;;;;;;;10.00;10.00;;;;;22.06;41.61;101934.41;5045288;28;46176;-50
2021/05/30 06:32:30;;;;;;;;;10.00;10.00;;;;;22.06;42.16;101922.94;5024281;28;45425;-48
2021/05/30 06:34:55;;;;;;;;;14.00;14.00;;;;;22.06;41.96;101933.50;5023020;28;45282;-48
2021/05/30 06:37:20;;;;;;;;;14.00;11.33;;;;;22.04;41.94;101917.72;5023904;28;53026;-48
2021/05/30 06:39:46;;;;;;;;;12.00;11.00;;;;;22.06;42.27;101923.81;5023875;28;53061;-47
2021/05/30 06:42:11;;;;;;;;;13.33;12.00;;;;;22.05;41.85;101935.31;5034199;28;59325;-52
2021/05/30 06:44:36;;;;;;;;;9.67;9.67;;;;;22.05;42.11;101932.66;5039915;28;45254;-49
2021/05/30 06:47:02;;;;;;;;;12.00;12.00;;;;;22.05;42.02;101929.13;5022972;28;45197;-50
2021/05/30 06:49:29;;;;;;;;;12.33;11.67;;;;;22.04;42.07;101928.28;5023434;28;45995;-51
2021/05/30 06:51:54;;;;;;;;;11.00;11.00;;;;;22.05;41.82;101934.44;5023941;28;45315;-51
2021/05/30 06:54:20;;;;;;;;;12.00;12.00;;;;;22.04;41.74;101930.94;5023051;28;60245;-51
2021/05/30 06:56:45;;;;;;;;;14.00;14.00;;;;;22.05;41.71;101923.84;5033257;28;45516;-49
2021/05/30 06:59:11;;;;;;;;;10.00;10.00;;;;;22.04;41.84;101927.41;5025939;28;65538;-51
2021/05/30 07:01:36;;;;;;;;;8.67;8.67;;;;;22.03;41.56;101929.19;5023842;28;45266;-48
2021/05/30 07:04:02;;;;;;;;;15.00;12.67;;;;;22.03;41.67;101930.97;5041890;28;45307;-51
2021/05/30 07:06:27;;;;;;;;;14.33;13.33;;;;;22.03;41.50;101925.69;5038100;28;45607;-49
2021/05/30 07:08:52;;;;;;;;;12.33;11.00;;;;;22.02;41.81;101931.88;5040048;28;46969;-50
2021/05/30 07:11:18;;;;;;;;;11.67;11.67;;;;;22.02;42.06;101929.22;5025967;28;45301;-49
2021/05/30 07:13:43;;;;;;;;;14.67;12.33;;;;;22.01;41.74;101938.94;5028707;28;45732;-49
2021/05/30 07:16:08;;;;;;;;;11.33;10.67;;;;;22.01;41.52;101931.03;5028221;28;45219;-50
2021/05/30 07:18:34;;;;;;;;;10.00;10.00;;;;;22.01;41.79;101932.78;5034008;28;64563;-48
2021/05/30 07:20:59;;;;;;;;;13.00;13.00;;;;;22.01;41.43;101938.06;5043919;28;45318;-48
2021/05/30 07:23:25;;;;;;;;;10.33;10.33;;;;;22.00;41.33;101931.94;5030301;28;45702;-48
2021/05/30 07:25:51;;;;;;;;;16.33;13.00;;;;;22.00;41.51;101936.38;5020947;28;45354;-52
2021/05/30 07:28:17;;;;;;;;;14.67;12.00;;;;;22.00;41.88;101936.38;5050079;28;46191;-52
2021/05/30 07:30:43;;;;;;;;;12.67;12.67;;;;;22.00;41.84;101937.22;5039691;28;45377;-52
2021/05/30 07:33:08;;;;;;;;;12.67;12.67;;;;;22.00;41.86;101931.94;5040501;28;45721;-49
2021/05/30 07:35:36;;;;;;;;;12.33;11.33;;;;;22.00;41.58;101923.16;5039068;28;45618;-47
2021/05/30 07:38:02;;;;;;;;;14.00;13.67;;;;;22.00;42.09;101923.16;5035199;28;46302;-53
2021/05/30 07:40:27;;;;;;;;;10.00;10.00;;;;;21.99;41.79;101918.78;5041984;28;45467;-49
2021/05/30 07:42:53;;;;;;;;;11.33;11.33;;;;;21.99;41.57;101924.91;5026437;28;46622;-51
2021/05/30 07:45:19;;;;;;;;;11.67;11.67;;;;;21.99;41.57;101927.56;5023372;28;45511;-55
2021/05/30 07:47:46;;;;;;;;;14.33;13.33;;;;;21.98;42.39;101920.53;5022671;28;45361;-52
2021/05/30 07:50:13;;;;;;;;;13.00;12.33;;;;;21.97;41.89;101921.44;5029455;28;45332;-54
2021/05/30 07:52:39;;;;;;;;;14.33;12.00;;;;;21.98;42.17;101915.25;5040885;28;45369;-50
2021/05/30 07:55:07;;;;;;;;;11.33;11.33;;;;;21.98;42.02;101917.03;5035512;28;45475;-52
2021/05/30 07:57:34;;;;;;;;;12.33;10.67;;;;;21.98;42.42;101914.41;5020212;28;45658;-51
2021/05/30 07:59:59;;;;;;;;;15.67;15.67;;;;;21.99;42.13;101914.34;5038879;28;45833;-50
2021/05/30 08:02:25;;;;;;;;;11.00;11.00;;;;;21.98;42.08;101909.13;5028205;28;45396;-52
2021/05/30 08:04:52;;;;;;;;;11.33;11.33;;;;;21.99;42.15;101908.22;5034412;28;45534;-51
2021/05/30 08:07:18;;;;;;;;;13.67;13.00;;;;;21.99;42.32;101916.97;5031517;28;46092;-53
2021/05/30 08:09:43;;;;;;;;;14.67;13.33;;;;;21.99;42.39;101918.78;5029802;28;64275;-53
2021/05/30 08:12:09;;;;;;;;;15.67;15.33;;;;;21.99;42.16;101909.06;5034284;28;55942;-51
2021/05/30 08:14:36;;;;;;;;;14.33;14.33;;;;;21.99;42.71;101911.69;5031291;28;45425;-49
2021/05/30 08:17:02;;;;;;;;;12.67;11.33;;;;;21.99;42.53;101918.78;5025820;28;46165;-52
2021/05/30 08:19:28;;;;;;;;;13.33;13.33;;;;;21.99;42.43;101919.63;5026865;28;45448;-52
2021/05/30 08:21:53;;;;;;;;;13.67;12.67;;;;;21.98;42.72;101917.91;5030152;28;45444;-52
2021/05/30 08:24:18;;;;;;;;;13.67;13.33;;;;;21.99;42.41;101919.63;5029770;28;47432;-53
2021/05/30 08:26:44;;;;;;;;;14.33;13.67;;;;;21.99;42.35;101918.78;5032660;28;46277;-51
2021/05/30 08:29:09;;;;;;;;;12.67;9.67;;;;;22.00;42.24;101910.78;5029343;28;48078;-53
2021/05/30 08:31:35;;;;;;;;;15.33;14.67;;;;;22.00;42.44;101913.44;5028492;28;45445;-53
2021/05/30 08:34:00;;;;;;;;;10.67;10.67;;;;;22.00;42.49;101916.06;5025440;28;61201;-53
2021/05/30 08:36:27;;;;;;;;;14.67;14.67;;;;;22.00;42.31;101905.50;5021287;28;69294;-51
2021/05/30 08:38:53;;;;;;;;;12.00;12.00;;;;;22.01;42.19;101907.22;5024704;28;45323;-52
2021/05/30 08:41:19;;;;;;;;;14.67;12.00;;;;;22.02;42.57;101905.44;5025495;28;45423;-52
2021/05/30 08:43:44;;;;;;;;;11.33;11.00;;;;;22.02;42.03;101913.38;5040649;28;45596;-53
2021/05/30 08:46:09;;;;;;;;;16.67;15.67;;;;;22.02;42.88;101895.75;5023870;28;65883;-56
2021/05/30 08:48:35;;;;;;;;;13.33;11.33;;;;;22.02;42.35;101903.69;5021122;28;59680;-57
2021/05/30 08:51:04;;;;;;;;;12.33;12.00;;;;;22.05;42.39;101897.41;5021841;28;45392;-55
2021/05/30 08:53:31;;;;;;;;;16.00;14.67;;;;;22.05;42.56;101890.38;5010295;28;45476;-56
2021/05/30 08:55:57;;;;;;;;;12.33;12.00;;;;;22.06;42.70;101893.88;5036573;28;46393;-54
2021/05/30 08:58:22;;;;;;;;;13.00;11.00;;;;;22.08;42.58;101882.31;5030251;28;45274;-57
2021/05/30 09:01:12;;;;;;;;;14.67;12.00;;;;;22.10;42.79;101879.66;5035592;28;55336;-54
2021/05/30 09:04:04;;;;;;;;;12.67;11.00;;;;;22.13;42.27;101881.31;5041999;28;45348;-53
2021/05/30 09:06:30;;;;;;;;;12.67;12.00;;;;;22.15;42.58;101882.13;5041573;28;46233;-55
2021/05/30 09:08:55;;;;;;;;;14.33;14.00;;;;;22.16;42.36;101878.59;5040243;28;45307;-59
2021/05/30 09:11:42;;;;;;;;;11.33;9.67;;;;;22.16;42.56;101876.78;5041652;28;45364;-61
2021/05/30 09:14:13;;;;;;;;;16.00;12.67;;;;;22.18;42.87;101884.69;5041512;28;45560;-70
2021/05/30 09:16:53;;;;;;;;;17.00;13.00;;;;;22.19;42.41;101884.63;5034337;28;45414;-59
2021/05/30 09:19:38;;;;;;;;;17.33;16.33;;;;;22.21;42.45;101881.94;5021005;28;45349;-58
2021/05/30 09:22:27;;;;;;;;;10.33;10.33;;;;;22.23;42.55;101880.13;5020097;28;45313;-58
2021/05/30 09:25:11;;;;;;;;;14.00;13.33;;;;;22.23;42.27;101877.47;5021403;28;45543;-57
2021/05/30 09:27:46;;;;;;;;;12.67;12.00;;;;;22.23;42.36;101885.41;5020869;28;46244;-58
2021/05/30 09:30:29;;;;;;;;;16.00;14.67;;;;;22.25;42.46;101880.91;5019803;28;45347;-59
2021/05/30 09:33:11;;;;;;;;;15.00;12.67;;;;;22.24;42.44;101879.19;5025448;28;45505;-59
2021/05/30 09:35:39;;;;;;;;;12.00;12.00;;;;;22.26;42.44;101884.44;5038684;28;45563;-59
2021/05/30 09:38:07;;;;;;;;;13.67;12.00;;;;;22.26;42.07;101876.50;5040248;28;46971;-59
2021/05/30 09:40:35;;;;;;;;;11.00;11.00;;;;;22.26;42.17;101879.16;5041043;28;45282;-59
2021/05/30 09:43:07;;;;;;;;;15.67;15.67;;;;;22.28;42.25;101879.97;5038288;28;45275;-59
2021/05/30 09:45:32;;;;;;;;;11.00;11.00;;;;;22.27;42.08;101873.78;5038328;28;45453;-59
2021/05/30 09:47:58;;;;;;;;;18.67;15.67;;;;;22.27;42.08;101871.16;5022909;28;45243;-60
2021/05/30 09:50:23;;;;;;;;;14.33;12.00;;;;;22.27;42.08;101865.88;5020070;28;62276;-60
2021/05/30 09:52:51;;;;;;;;;13.67;12.33;;;;;22.28;41.75;101872.88;5020885;28;45421;-60
2021/05/30 09:55:20;;;;;;;;;12.67;11.33;;;;;22.27;42.37;101860.56;5021589;28;45520;-60
2021/05/30 09:58:18;;;;;;;;;13.00;11.67;;;;;22.27;42.06;101868.50;5020806;28;45309;-61
2021/05/30 10:00:56;;;;;;;;;14.67;11.67;;;;;22.27;42.32;101857.09;5021085;28;45413;-60
2021/05/30 10:03:26;;;;;;;;;12.00;9.00;;;;;22.27;42.08;101860.56;5021005;28;45379;-60
2021/05/30 10:05:51;;;;;;;;;14.33;12.67;;;;;22.27;41.90;101854.44;5021062;28;45487;-60
2021/05/30 10:08:17;;;;;;;;;15.67;13.33;;;;;22.27;41.98;101854.44;5021051;28;45202;-60
2021/05/30 10:10:43;;;;;;;;;9.33;9.33;;;;;22.27;42.04;101847.34;5025828;28;45235;-61
2021/05/30 10:13:10;;;;;;;;;15.33;14.00;;;;;22.26;42.02;101853.56;5028642;28;45404;-60
2021/05/30 10:15:37;;;;;;;;;13.67;11.33;;;;;22.27;41.63;101852.63;5033859;28;45428;-60
2021/05/30 10:18:10;;;;;;;;;12.33;12.33;;;;;22.27;41.84;101844.72;5024980;28;45426;-60
2021/05/30 10:20:37;;;;;;;;;12.67;11.67;;;;;22.29;41.69;101849.97;5029550;28;45456;-60
2021/05/30 10:23:03;;;;;;;;;11.67;11.33;;;;;22.28;41.92;101840.31;5048094;28;45452;-60
2021/05/30 10:25:30;;;;;;;;;15.00;12.67;;;;;22.27;42.08;101836.78;5039327;28;51185;-60
2021/05/30 10:28:18;;;;;;;;;14.67;14.00;;;;;22.28;42.30;101841.16;5043987;28;46340;-60
2021/05/30 10:30:48;;;;;;;;;11.67;11.67;;;;;22.28;42.91;101835.00;5023804;28;45342;-60
2021/05/30 10:33:24;;;;;;;;;17.67;17.00;;;;;22.29;43.14;101842.03;5039840;28;45494;-60
2021/05/30 10:35:55;;;;;;;;;19.33;18.00;;;;;22.30;43.27;101838.47;5042900;28;45173;-60
2021/05/30 10:38:42;;;;;;;;;20.00;20.00;;;;;22.30;43.54;101834.03;5029395;28;47141;-60
2021/05/30 10:41:14;;;;;;;;;21.00;19.67;;;;;22.31;43.61;101840.22;5028222;28;45456;-60
2021/05/30 10:43:40;;;;;;;;;17.67;17.67;;;;;22.31;43.59;101843.69;5031782;28;45484;-59
2021/05/30 10:46:06;;;;;;;;;18.67;16.67;;;;;22.31;43.33;101830.47;5027861;28;45332;-59
2021/05/30 10:48:32;;;;;;;;;15.00;13.00;;;;;22.32;43.46;101821.63;5023848;28;46053;-59
2021/05/30 10:51:11;;;;;;;;;16.00;15.00;;;;;22.33;43.19;101841.88;5049361;28;45392;-60
2021/05/30 10:53:41;;;;;;;;;15.00;14.00;;;;;22.33;43.23;101830.41;5035934;28;45241;-60
2021/05/30 10:56:31;;;;;;;;;13.67;13.67;;;;;22.33;43.21;101823.38;5028223;28;45379;-60
2021/05/30 10:59:19;;;;;;;;;16.67;15.33;;;;;22.34;42.72;101825.09;5035957;28;46319;-59
2021/05/30 11:01:47;;;;;;;;;17.00;17.00;;;;;22.35;42.94;101818.88;5033244;28;45406;-59
2021/05/30 11:04:24;;;;;;;;;16.00;15.00;;;;;22.36;43.30;101820.63;5029341;28;45401;-59
2021/05/30 11:06:56;;;;;;;;;16.00;16.00;;;;;22.36;43.05;101823.25;5032212;28;45587;-59
2021/05/30 11:09:22;;;;;;;;;12.67;11.67;;;;;22.36;42.97;101830.31;5027214;28;45614;-58
2021/05/30 11:12:22;;;;;;;;;18.00;16.33;;;;;22.37;42.87;101825.00;5029677;28;45501;-56